Terminal Aerodrome Forecast
Issued by NWS

Home | Current Version | Previous Version | Text Only | Print | Product List | Glossary On
Versions: 1 2 3 4 5 6 7 8 9 10 11 12 13 14 15 16 17
573
FTUS46 KMTR 292320
TAFOAK
TAF
KOAK 292320Z 3000/3106 30015KT P6SM FEW200
     FM300400 29010KT P6SM FEW015
     FM300700 29007KT P6SM SCT015
     FM300900 31004KT P6SM OVC015
     FM301800 30006KT P6SM SCT015
     FM302000 29014KT P6SM SKC
     FM310400 29010KT P6SM SCT015=

USA.gov is the U.S. government's official web portal to all federal, state and local government web resources and services.